createdAt,value
2022-11-14T00:00:07.892Z,101761.19
2022-11-14T00:03:09.392Z,101754.13
2022-11-14T00:06:29.039Z,101761.03
2022-11-14T00:09:29.670Z,101752.34
2022-11-14T00:12:27.674Z,101749.81
2022-11-14T00:15:26.587Z,101761.41
2022-11-14T00:18:28.187Z,101751.69
2022-11-14T00:21:27.771Z,101740.50
2022-11-14T00:24:27.127Z,101751.91
2022-11-14T00:27:44.996Z,101742.94
2022-11-14T00:30:48.923Z,101730.38
2022-11-14T00:33:47.877Z,101729.47
2022-11-14T00:36:48.817Z,101728.13
2022-11-14T00:39:47.444Z,101723.59
2022-11-14T00:42:46.453Z,101725.09
2022-11-14T00:45:48.063Z,101724.00
2022-11-14T00:48:47.704Z,101712.22
2022-11-14T00:51:46.702Z,101713.06
2022-11-14T00:54:45.421Z,101714.75
2022-11-14T00:58:05.932Z,101707.59
2022-11-14T01:01:04.738Z,101708.09
2022-11-14T01:04:05.740Z,101705.44
2022-11-14T01:07:04.145Z,101704.72
2022-11-14T01:10:03.123Z,101692.34
2022-11-14T01:13:02.155Z,101690.66
2022-11-14T01:16:03.174Z,101685.50
2022-11-14T01:19:01.739Z,101685.09
2022-11-14T01:22:03.115Z,101680.66
2022-11-14T01:25:04.930Z,101673.69
2022-11-14T01:28:03.670Z,101682.84
2022-11-14T01:31:11.044Z,101683.50
2022-11-14T01:34:10.751Z,101677.78
2022-11-14T01:37:09.291Z,101670.09
2022-11-14T01:40:11.244Z,101669.47
2022-11-14T01:43:37.190Z,101657.97
2022-11-14T01:46:37.888Z,101655.63
2022-11-14T01:49:39.207Z,101649.69
2022-11-14T01:52:40.397Z,101642.63
2022-11-14T01:55:39.477Z,101628.53
2022-11-14T01:58:43.291Z,101630.13
2022-11-14T02:01:46.789Z,101635.06
2022-11-14T02:04:50.084Z,101611.56
2022-11-14T02:07:48.569Z,101614.69
2022-11-14T02:10:49.307Z,101615.16
2022-11-14T02:13:47.991Z,101614.09
2022-11-14T02:17:01.034Z,101611.56
2022-11-14T02:20:16.355Z,101616.75
2022-11-14T02:23:17.087Z,101605.44
2022-11-14T02:26:17.974Z,101604.59
2022-11-14T02:29:17.257Z,101603.31
2022-11-14T02:32:14.271Z,101602.72
2022-11-14T02:35:13.048Z,101602.16
2022-11-14T02:38:13.163Z,101596.88
2022-11-14T02:41:12.302Z,101602.56
2022-11-14T02:44:12.310Z,101590.59
2022-11-14T02:47:10.536Z,101589.75
2022-11-14T02:50:10.228Z,101593.22
2022-11-14T02:53:08.572Z,101600.13
2022-11-14T02:56:06.918Z,101595.22
2022-11-14T02:59:07.048Z,101587.22
2022-11-14T03:02:07.672Z,101584.97
2022-11-14T03:05:09.127Z,101583.28
2022-11-14T03:08:10.546Z,101582.78
2022-11-14T03:11:10.303Z,101576.78
2022-11-14T03:14:13.138Z,101571.13
2022-11-14T03:17:12.251Z,101562.66
2022-11-14T03:20:13.953Z,101562.09
2022-11-14T03:23:13.807Z,101553.69
2022-11-14T03:26:13.453Z,101557.53
2022-11-14T03:29:12.900Z,101546.16
2022-11-14T03:32:13.709Z,101542.88
2022-11-14T03:35:14.390Z,101531.75
2022-11-14T03:38:11.736Z,101522.72
2022-11-14T03:41:12.296Z,101524.06
2022-11-14T03:44:11.146Z,101513.31
2022-11-14T03:47:09.984Z,101509.38
2022-11-14T03:50:09.521Z,101510.75
2022-11-14T03:53:10.257Z,101509.59
2022-11-14T03:56:08.166Z,101507.25
2022-11-14T03:59:07.918Z,101500.97
2022-11-14T04:02:20.353Z,101500.22
2022-11-14T04:05:18.929Z,101506.88
2022-11-14T04:08:17.882Z,101497.59
2022-11-14T04:11:19.076Z,101496.16
2022-11-14T04:14:18.486Z,101494.00
2022-11-14T04:17:16.550Z,101487.03
2022-11-14T04:20:15.941Z,101487.47
2022-11-14T04:23:14.501Z,101492.84
2022-11-14T04:26:15.534Z,101501.72
2022-11-14T04:29:16.112Z,101491.38
2022-11-14T04:32:14.774Z,101509.53
2022-11-14T04:35:15.968Z,101499.38
2022-11-14T04:38:16.335Z,101498.34
2022-11-14T04:41:17.985Z,101488.84
2022-11-14T04:44:19.204Z,101494.59
2022-11-14T04:47:18.890Z,101493.47
2022-11-14T04:50:20.454Z,101503.59
2022-11-14T04:53:19.979Z,101497.03
2022-11-14T04:56:23.016Z,101505.22
2022-11-14T04:59:21.529Z,101503.72
2022-11-14T05:02:20.780Z,101489.53
2022-11-14T05:05:22.799Z,101494.63
2022-11-14T05:08:23.804Z,101489.81
2022-11-14T05:11:28.062Z,101486.97
2022-11-14T05:14:31.610Z,101480.03
2022-11-14T05:17:32.217Z,101472.88
2022-11-14T05:20:30.905Z,101476.53
2022-11-14T05:23:29.896Z,101473.16
2022-11-14T05:26:30.952Z,101481.06
2022-11-14T05:29:29.556Z,101481.09
2022-11-14T05:32:29.467Z,101460.47
2022-11-14T05:35:48.262Z,101465.38
2022-11-14T05:38:49.293Z,101462.75
2022-11-14T05:41:47.882Z,101469.16
2022-11-14T05:44:46.877Z,101463.41
2022-11-14T05:47:48.893Z,101463.91
2022-11-14T05:50:48.079Z,101457.38
2022-11-14T05:53:47.111Z,101454.56
2022-11-14T05:56:46.153Z,101447.97
2022-11-14T05:59:46.144Z,101449.19
2022-11-14T06:03:07.051Z,101448.06
2022-11-14T06:06:10.011Z,101443.66
2022-11-14T06:09:09.142Z,101442.72
2022-11-14T06:12:08.554Z,101437.25
2022-11-14T06:15:20.765Z,101435.53
2022-11-14T06:18:19.776Z,101427.84
2022-11-14T06:21:20.741Z,101431.56
2022-11-14T06:24:21.404Z,101433.75
2022-11-14T06:27:22.007Z,101418.25
2022-11-14T06:30:20.749Z,101420.47
2022-11-14T06:33:21.626Z,101418.59
2022-11-14T06:36:20.328Z,101421.97
2022-11-14T06:39:19.372Z,101416.91
2022-11-14T06:42:18.276Z,101420.06
2022-11-14T06:45:17.589Z,101413.22
2022-11-14T06:48:15.037Z,101413.44
2022-11-14T06:51:15.278Z,101415.53
2022-11-14T06:54:14.573Z,101418.78
2022-11-14T06:57:13.342Z,101408.25
2022-11-14T07:00:13.140Z,101404.91
2022-11-14T07:03:11.330Z,101395.22
2022-11-14T07:06:12.472Z,101400.09
2022-11-14T07:09:11.474Z,101413.97
2022-11-14T07:12:10.440Z,101414.38
2022-11-14T07:15:11.790Z,101402.81
2022-11-14T07:18:11.133Z,101394.94
2022-11-14T07:21:13.157Z,101390.06
2022-11-14T07:24:13.997Z,101393.78
2022-11-14T07:27:14.971Z,101383.53
2022-11-14T07:30:16.572Z,101375.94
2022-11-14T07:33:15.758Z,101378.91
2022-11-14T07:36:17.785Z,101382.13
2022-11-14T07:39:15.702Z,101381.28
2022-11-14T07:42:14.612Z,101378.75
2022-11-14T07:45:13.404Z,101381.00
2022-11-14T07:48:13.264Z,101375.53
2022-11-14T07:51:16.854Z,101373.28
2022-11-14T07:54:15.524Z,101371.69
2022-11-14T07:57:14.242Z,101368.00
2022-11-14T08:00:16.899Z,101384.84
2022-11-14T08:03:15.455Z,101385.28
2022-11-14T08:06:15.665Z,101379.81
2022-11-14T08:09:14.212Z,101388.63
2022-11-14T08:12:14.477Z,101392.31
2022-11-14T08:15:14.550Z,101377.34
2022-11-14T08:18:14.403Z,101371.75
2022-11-14T08:21:12.627Z,101375.50
2022-11-14T08:24:11.880Z,101387.78
2022-11-14T08:27:10.757Z,101393.63
2022-11-14T08:30:10.985Z,101401.84
2022-11-14T08:33:10.353Z,101407.97
2022-11-14T08:36:11.752Z,101415.78
2022-11-14T08:39:11.933Z,101410.59
2022-11-14T08:42:10.526Z,101423.25
2022-11-14T08:45:10.302Z,101423.06
2022-11-14T08:48:49.944Z,101409.03
2022-11-14T08:51:48.125Z,101413.56
2022-11-14T08:54:58.954Z,101421.19
2022-11-14T08:57:59.926Z,101417.47
2022-11-14T09:01:05.495Z,101406.97
2022-11-14T09:04:04.916Z,101416.06
2022-11-14T09:07:04.972Z,101398.72
2022-11-14T09:10:03.980Z,101400.75
2022-11-14T09:13:05.068Z,101388.63
2022-11-14T09:16:03.347Z,101383.78
2022-11-14T09:19:02.197Z,101376.78
2022-11-14T09:22:00.092Z,101369.44
2022-11-14T09:24:57.322Z,101357.28
2022-11-14T09:27:55.982Z,101359.06
2022-11-14T09:31:12.335Z,101347.16
2022-11-14T09:34:14.951Z,101329.66
2022-11-14T09:37:14.432Z,101323.66
2022-11-14T09:40:15.407Z,101303.94
2022-11-14T09:43:26.077Z,101295.19
2022-11-14T09:46:27.044Z,101276.06
2022-11-14T09:49:32.975Z,101267.63
2022-11-14T09:52:37.275Z,101243.22
2022-11-14T09:55:49.006Z,101214.03
2022-11-14T09:58:47.967Z,101193.25
2022-11-14T10:01:53.337Z,101152.56
2022-11-14T10:05:02.341Z,101092.72
2022-11-14T10:08:14.517Z,101038.47
2022-11-14T10:11:15.017Z,100992.25
2022-11-14T10:14:49.911Z,100925.00
2022-11-14T10:18:16.310Z,100874.38
2022-11-14T10:21:30.425Z,100830.41
2022-11-14T10:24:45.248Z,100780.31
2022-11-14T10:27:55.914Z,100729.13
2022-11-14T10:31:03.983Z,100683.06
2022-11-14T10:34:07.305Z,100648.47
2022-11-14T10:37:16.221Z,100620.94
2022-11-14T10:40:20.187Z,100615.88
2022-11-14T10:43:23.792Z,100619.38
2022-11-14T10:46:28.060Z,100605.31
2022-11-14T10:49:26.982Z,100617.53
2022-11-14T10:52:36.961Z,100719.69
2022-11-14T10:55:57.804Z,100719.19
2022-11-14T10:58:57.126Z,100719.31
2022-11-14T11:01:59.356Z,100726.28
2022-11-14T11:05:06.017Z,100695.84
2022-11-14T11:08:42.510Z,100685.78
2022-11-14T11:11:55.918Z,100691.50
2022-11-14T11:15:16.183Z,100684.75
2022-11-14T11:18:31.771Z,100668.88
2022-11-14T11:21:48.432Z,100664.28
2022-11-14T11:24:46.584Z,100657.97
2022-11-14T11:27:45.636Z,100652.63
2022-11-14T11:30:57.382Z,100635.97
2022-11-14T11:33:56.807Z,100623.78
2022-11-14T11:36:59.998Z,100628.00
2022-11-14T11:40:04.679Z,100623.41
2022-11-14T11:46:48.644Z,100625.53
2022-11-14T11:49:53.319Z,100611.44
2022-11-14T11:52:58.441Z,100590.84
2022-11-14T11:56:02.986Z,100599.19
2022-11-14T11:59:11.661Z,100598.34
2022-11-14T12:02:21.562Z,100595.72
2022-11-14T12:05:26.919Z,100609.78
2022-11-14T12:08:34.419Z,100605.31
2022-11-14T12:11:36.416Z,100603.59
2022-11-14T12:14:47.760Z,100614.31
2022-11-14T12:18:23.750Z,100638.03
2022-11-14T12:21:43.114Z,100648.84
2022-11-14T12:25:07.597Z,100649.06
2022-11-14T12:28:20.568Z,100673.88
2022-11-14T12:31:20.628Z,100683.59
2022-11-14T12:34:24.713Z,100688.00
2022-11-14T12:37:25.187Z,100703.56
2022-11-14T12:40:28.793Z,100711.53
2022-11-14T12:43:36.885Z,100724.19
2022-11-14T12:50:16.420Z,100728.00
2022-11-14T12:53:44.967Z,100733.84
2022-11-14T12:57:01.583Z,100744.19
2022-11-14T13:00:14.013Z,100734.78
2022-11-14T13:03:24.390Z,100741.91
2022-11-14T13:06:28.108Z,100738.47
2022-11-14T13:09:39.981Z,100758.03
2022-11-14T13:12:58.549Z,100752.59
2022-11-14T13:16:17.234Z,100754.72
2022-11-14T13:19:38.517Z,100771.53
2022-11-14T13:22:40.767Z,100775.53
2022-11-14T13:25:42.098Z,100771.22
2022-11-14T13:28:48.835Z,100786.09
2022-11-14T13:31:59.567Z,100786.41
2022-11-14T13:35:00.968Z,100772.47
2022-11-14T13:38:30.161Z,100786.91
2022-11-14T13:41:50.706Z,100780.78
2022-11-14T13:45:13.171Z,100782.00
2022-11-14T13:48:32.871Z,100782.09
2022-11-14T13:51:46.947Z,100774.47
2022-11-14T13:54:48.732Z,100763.41
2022-11-14T13:57:57.718Z,100757.50
2022-11-14T14:01:07.726Z,100752.19
2022-11-14T14:04:22.142Z,100746.63
2022-11-14T14:07:27.407Z,100738.28
2022-11-14T14:10:33.384Z,100720.56
2022-11-14T14:13:43.322Z,100708.72
2022-11-14T14:16:46.565Z,100695.94
2022-11-14T14:19:56.211Z,100698.16
2022-11-14T14:23:01.326Z,100683.94
2022-11-14T14:26:06.527Z,100681.47
2022-11-14T14:29:15.888Z,100677.81
2022-11-14T14:32:18.384Z,100680.72
2022-11-14T14:35:24.905Z,100670.84
2022-11-14T14:38:26.602Z,100675.16
2022-11-14T14:41:24.899Z,100665.94
2022-11-14T14:44:27.217Z,100658.38
2022-11-14T14:47:39.527Z,100643.91
2022-11-14T14:50:42.215Z,100635.94
2022-11-14T14:53:52.324Z,100631.78
2022-11-14T14:57:00.188Z,100615.34
2022-11-14T15:00:01.403Z,100618.25
2022-11-14T15:03:02.506Z,100617.28
2022-11-14T15:06:05.506Z,100605.16
2022-11-14T15:09:18.801Z,100609.00
2022-11-14T15:12:17.619Z,100599.41
2022-11-14T15:15:22.135Z,100595.50
2022-11-14T15:18:24.863Z,100598.25
2022-11-14T15:21:28.191Z,100582.94
2022-11-14T15:24:27.308Z,100579.28
2022-11-14T15:27:26.991Z,100576.44
2022-11-14T15:30:28.023Z,100566.97
2022-11-14T15:33:30.401Z,100551.63
2022-11-14T15:36:29.915Z,100537.97
2022-11-14T15:39:29.962Z,100525.31
2022-11-14T15:42:30.839Z,100529.06
2022-11-14T15:45:39.913Z,100521.00
2022-11-14T15:48:41.990Z,100514.53
2022-11-14T15:51:41.447Z,100509.78
2022-11-14T15:54:42.918Z,100499.94
2022-11-14T15:57:51.681Z,100500.56
2022-11-14T16:00:54.852Z,100523.38
2022-11-14T16:03:54.488Z,100525.19
2022-11-14T16:07:14.197Z,100526.28
2022-11-14T16:10:17.354Z,100525.56
2022-11-14T16:13:16.058Z,100535.44
2022-11-14T16:16:15.095Z,100530.22
2022-11-14T16:19:16.513Z,100536.56
2022-11-14T16:22:18.270Z,100540.66
2022-11-14T16:25:38.143Z,100535.91
2022-11-14T16:28:36.658Z,100547.56
2022-11-14T16:31:35.842Z,100553.19
2022-11-14T16:34:34.672Z,100560.53
2022-11-14T16:37:33.690Z,100577.47
2022-11-14T16:40:45.719Z,100602.16
2022-11-14T16:43:43.520Z,100632.41
2022-11-14T16:46:42.927Z,100664.31
2022-11-14T16:49:41.518Z,100700.03
2022-11-14T16:52:40.761Z,100750.88
2022-11-14T16:55:44.877Z,100794.16
2022-11-14T16:58:43.319Z,100842.72
2022-11-14T17:01:44.462Z,100905.44
2022-11-14T17:04:45.878Z,100963.81
2022-11-14T17:07:43.560Z,100837.34
2022-11-14T17:10:42.967Z,100889.53
2022-11-14T17:13:41.642Z,100943.25
2022-11-14T17:16:42.592Z,100979.31
2022-11-14T17:19:45.840Z,101001.50
2022-11-14T17:22:44.995Z,101007.22
2022-11-14T17:25:42.763Z,101011.03
2022-11-14T17:28:43.104Z,100998.91
2022-11-14T17:31:47.010Z,100984.75
2022-11-14T17:34:45.797Z,100969.16
2022-11-14T17:37:44.879Z,100966.84
2022-11-14T17:40:43.829Z,100979.53
2022-11-14T17:43:45.170Z,100984.41
2022-11-14T17:46:43.426Z,100995.38
2022-11-14T17:49:44.440Z,101016.22
2022-11-14T17:52:45.040Z,101018.38
2022-11-14T17:55:44.572Z,101036.19
2022-11-14T17:58:45.386Z,101047.47
2022-11-14T18:01:44.915Z,101059.06
2022-11-14T18:04:43.936Z,101063.50
2022-11-14T18:07:43.682Z,101077.84
2022-11-14T18:10:44.094Z,101081.53
2022-11-14T18:13:44.614Z,101090.47
2022-11-14T18:17:11.078Z,101083.63
2022-11-14T18:20:03.149Z,101075.09
2022-11-14T18:23:01.917Z,101073.53
2022-11-14T18:25:59.675Z,101071.13
2022-11-14T18:28:59.332Z,101058.28
2022-11-14T18:32:18.258Z,101061.09
2022-11-14T18:35:20.156Z,101063.09
2022-11-14T18:38:21.378Z,101063.31
2022-11-14T18:41:22.204Z,101049.53
2022-11-14T18:44:23.118Z,101041.03
2022-11-14T18:47:21.190Z,101027.31
2022-11-14T18:50:22.215Z,101024.06
2022-11-14T18:53:20.774Z,101025.84
2022-11-14T18:56:22.798Z,101019.84
2022-11-14T18:59:20.792Z,101021.84
2022-11-14T19:02:21.454Z,101013.00
2022-11-14T19:05:22.127Z,100992.16
2022-11-14T19:08:22.636Z,101006.16
2022-11-14T19:11:39.566Z,101002.88
2022-11-14T19:14:37.907Z,101008.25
2022-11-14T19:17:58.265Z,100997.00
2022-11-14T19:21:01.204Z,100985.84
2022-11-14T19:24:01.167Z,100979.97
2022-11-14T19:27:00.218Z,100975.75
2022-11-14T19:29:58.462Z,100965.56
2022-11-14T19:32:57.500Z,100955.31
2022-11-14T19:35:56.505Z,100936.28
2022-11-14T19:38:56.231Z,100930.41
2022-11-14T19:41:54.577Z,100927.16
2022-11-14T19:44:53.513Z,100913.34
2022-11-14T19:47:52.612Z,100909.97
2022-11-14T19:50:59.595Z,100907.06
2022-11-14T19:54:00.991Z,100910.72
2022-11-14T19:56:59.527Z,100918.59
2022-11-14T20:00:18.540Z,100910.06
2022-11-14T20:03:19.978Z,100881.63
2022-11-14T20:06:20.080Z,100857.84
2022-11-14T20:09:21.378Z,100847.44
2022-11-14T20:12:19.798Z,100839.66
2022-11-14T20:15:37.998Z,100832.88
2022-11-14T20:18:39.292Z,100834.28
2022-11-14T20:21:39.632Z,100826.25
2022-11-14T20:24:38.329Z,100822.91
2022-11-14T20:27:37.280Z,100831.88
2022-11-14T20:30:35.106Z,100821.34
2022-11-14T20:33:39.903Z,100824.34
2022-11-14T20:37:09.257Z,100830.47
2022-11-14T20:40:02.550Z,100823.06
2022-11-14T20:43:01.500Z,100814.03
2022-11-14T20:46:01.762Z,100805.44
2022-11-14T20:49:00.725Z,100791.00
2022-11-14T20:52:01.427Z,100786.13
2022-11-14T20:55:00.576Z,100787.34
2022-11-14T20:58:01.354Z,100771.22
2022-11-14T21:01:00.724Z,100754.84
2022-11-14T21:04:00.926Z,100738.13
2022-11-14T21:06:59.633Z,100723.25
2022-11-14T21:10:16.139Z,100706.53
2022-11-14T21:13:43.160Z,100697.56
2022-11-14T21:16:41.384Z,100694.78
2022-11-14T21:19:40.371Z,100683.75
2022-11-14T21:22:39.376Z,100691.44
2022-11-14T21:25:38.401Z,100695.25
2022-11-14T21:28:39.053Z,100693.00
2022-11-14T21:31:41.269Z,100703.91
2022-11-14T21:34:40.211Z,100719.00
2022-11-14T21:37:41.182Z,100733.50
2022-11-14T21:40:39.791Z,100750.75
2022-11-14T21:43:39.002Z,100754.94
2022-11-14T21:46:37.817Z,100763.44
2022-11-14T21:49:36.826Z,100786.00
2022-11-14T21:52:35.924Z,100790.47
2022-11-14T21:55:36.841Z,100804.38
2022-11-14T21:58:35.456Z,100813.97
2022-11-14T22:02:10.966Z,100831.72
2022-11-14T22:05:10.405Z,100847.53
2022-11-14T22:08:10.044Z,100850.41
2022-11-14T22:11:10.350Z,100858.44
2022-11-14T22:14:09.123Z,100862.88
2022-11-14T22:17:09.880Z,100863.59
2022-11-14T22:20:10.493Z,100866.03
2022-11-14T22:23:09.113Z,100873.94
2022-11-14T22:26:08.359Z,100877.41
2022-11-14T22:29:05.889Z,100877.28
2022-11-14T22:32:06.669Z,100876.81
2022-11-14T22:35:05.956Z,100889.03
2022-11-14T22:38:04.145Z,100882.44
2022-11-14T22:41:06.500Z,100882.34
2022-11-14T22:44:05.602Z,100877.78
2022-11-14T22:47:04.467Z,100875.13
2022-11-14T22:50:04.968Z,100869.13
2022-11-14T22:53:23.226Z,100869.97
2022-11-14T22:56:41.393Z,100856.66
2022-11-14T22:59:42.398Z,100854.97
2022-11-14T23:02:43.020Z,100861.94
2022-11-14T23:05:41.602Z,100860.47
2022-11-14T23:09:00.322Z,100860.22
2022-11-14T23:12:00.966Z,100855.44
2022-11-14T23:15:01.461Z,100852.56
2022-11-14T23:18:02.231Z,100847.41
2022-11-14T23:21:05.571Z,100834.06
2022-11-14T23:24:08.535Z,100834.91
2022-11-14T23:27:06.644Z,100824.59
2022-11-14T23:30:08.963Z,100827.94
2022-11-14T23:33:07.866Z,100813.66
2022-11-14T23:36:09.467Z,100818.94
2022-11-14T23:39:07.508Z,100815.59
2022-11-14T23:42:25.711Z,100812.94
2022-11-14T23:45:26.699Z,100799.28
2022-11-14T23:48:25.852Z,100806.63
2022-11-14T23:51:34.978Z,100817.53
2022-11-14T23:54:33.116Z,100800.25
2022-11-14T23:57:33.147Z,100789.38
